sensor_id;sensor_type;location;lat;lon;timestamp;P1;durP1;ratioP1;P2;durP2;ratioP2
14235;SDS011;7202;50.718;7.072;2022-08-19T00:00:07;8.68;;;7.53;;
14235;SDS011;7202;50.718;7.072;2022-08-19T00:02:42;8.68;;;7.78;;
14235;SDS011;7202;50.718;7.072;2022-08-19T00:05:17;8.43;;;7.30;;
14235;SDS011;7202;50.718;7.072;2022-08-19T00:07:48;9.45;;;7.50;;
14235;SDS011;7202;50.718;7.072;2022-08-19T00:10:17;8.13;;;7.40;;
14235;SDS011;7202;50.718;7.072;2022-08-19T00:12:47;8.20;;;7.30;;
14235;SDS011;7202;50.718;7.072;2022-08-19T00:15:17;13.27;;;8.55;;
14235;SDS011;7202;50.718;7.072;2022-08-19T00:17:47;11.13;;;7.97;;
14235;SDS011;7202;50.718;7.072;2022-08-19T00:20:18;11.90;;;7.78;;
14235;SDS011;7202;50.718;7.072;2022-08-19T00:22:48;8.82;;;7.50;;
14235;SDS011;7202;50.718;7.072;2022-08-19T00:25:18;9.15;;;7.60;;
14235;SDS011;7202;50.718;7.072;2022-08-19T00:27:56;8.52;;;7.70;;
14235;SDS011;7202;50.718;7.072;2022-08-19T00:30:25;8.68;;;7.88;;
14235;SDS011;7202;50.718;7.072;2022-08-19T00:32:54;8.80;;;7.90;;
14235;SDS011;7202;50.718;7.072;2022-08-19T00:35:24;9.30;;;7.40;;
14235;SDS011;7202;50.718;7.072;2022-08-19T00:37:54;9.00;;;8.10;;
14235;SDS011;7202;50.718;7.072;2022-08-19T00:40:23;9.07;;;8.10;;
14235;SDS011;7202;50.718;7.072;2022-08-19T00:42:52;8.52;;;7.60;;
14235;SDS011;7202;50.718;7.072;2022-08-19T00:45:22;9.40;;;8.50;;
14235;SDS011;7202;50.718;7.072;2022-08-19T00:47:54;9.07;;;8.18;;
14235;SDS011;7202;50.718;7.072;2022-08-19T00:50:23;9.00;;;7.93;;
14235;SDS011;7202;50.718;7.072;2022-08-19T00:52:54;9.10;;;8.27;;
14235;SDS011;7202;50.718;7.072;2022-08-19T00:55:25;8.90;;;8.00;;
14235;SDS011;7202;50.718;7.072;2022-08-19T00:57:56;8.63;;;7.90;;
14235;SDS011;7202;50.718;7.072;2022-08-19T01:00:29;9.63;;;8.23;;
14235;SDS011;7202;50.718;7.072;2022-08-19T01:02:59;8.85;;;7.95;;
14235;SDS011;7202;50.718;7.072;2022-08-19T01:05:29;10.02;;;9.05;;
14235;SDS011;7202;50.718;7.072;2022-08-19T01:07:58;10.55;;;8.13;;
14235;SDS011;7202;50.718;7.072;2022-08-19T01:10:30;10.63;;;8.57;;
14235;SDS011;7202;50.718;7.072;2022-08-19T01:13:03;8.95;;;8.05;;
14235;SDS011;7202;50.718;7.072;2022-08-19T01:15:33;9.80;;;8.80;;
14235;SDS011;7202;50.718;7.072;2022-08-19T01:18:07;8.68;;;7.88;;
14235;SDS011;7202;50.718;7.072;2022-08-19T01:20:40;9.32;;;8.48;;
14235;SDS011;7202;50.718;7.072;2022-08-19T01:23:11;9.38;;;8.52;;
14235;SDS011;7202;50.718;7.072;2022-08-19T01:25:41;8.93;;;8.13;;
14235;SDS011;7202;50.718;7.072;2022-08-19T01:28:17;9.52;;;8.27;;
14235;SDS011;7202;50.718;7.072;2022-08-19T01:31:09;9.13;;;8.27;;
14235;SDS011;7202;50.718;7.072;2022-08-19T01:33:54;10.45;;;9.45;;
14235;SDS011;7202;50.718;7.072;2022-08-19T01:36:26;9.38;;;8.43;;
14235;SDS011;7202;50.718;7.072;2022-08-19T01:38:58;10.18;;;8.55;;
14235;SDS011;7202;50.718;7.072;2022-08-19T01:41:27;9.50;;;8.60;;
14235;SDS011;7202;50.718;7.072;2022-08-19T01:43:56;9.13;;;8.23;;
14235;SDS011;7202;50.718;7.072;2022-08-19T01:46:45;11.52;;;8.63;;
14235;SDS011;7202;50.718;7.072;2022-08-19T01:49:18;10.35;;;9.38;;
14235;SDS011;7202;50.718;7.072;2022-08-19T01:51:49;10.48;;;8.95;;
14235;SDS011;7202;50.718;7.072;2022-08-19T01:54:20;9.55;;;8.65;;
14235;SDS011;7202;50.718;7.072;2022-08-19T01:56:55;11.50;;;9.30;;
14235;SDS011;7202;50.718;7.072;2022-08-19T01:59:27;9.05;;;8.25;;
14235;SDS011;7202;50.718;7.072;2022-08-19T02:01:56;10.85;;;8.60;;
14235;SDS011;7202;50.718;7.072;2022-08-19T02:04:25;9.40;;;8.60;;
14235;SDS011;7202;50.718;7.072;2022-08-19T02:06:54;12.27;;;8.80;;
14235;SDS011;7202;50.718;7.072;2022-08-19T02:09:24;11.70;;;9.35;;
14235;SDS011;7202;50.718;7.072;2022-08-19T02:11:52;10.23;;;9.25;;
14235;SDS011;7202;50.718;7.072;2022-08-19T02:14:21;10.32;;;9.25;;
14235;SDS011;7202;50.718;7.072;2022-08-19T02:16:49;9.73;;;8.85;;
14235;SDS011;7202;50.718;7.072;2022-08-19T02:19:18;10.32;;;9.15;;
14235;SDS011;7202;50.718;7.072;2022-08-19T02:21:47;10.05;;;9.05;;
14235;SDS011;7202;50.718;7.072;2022-08-19T02:24:15;9.80;;;8.90;;
14235;SDS011;7202;50.718;7.072;2022-08-19T02:26:45;9.60;;;8.77;;
14235;SDS011;7202;50.718;7.072;2022-08-19T02:29:14;10.02;;;9.02;;
14235;SDS011;7202;50.718;7.072;2022-08-19T02:31:43;10.38;;;9.38;;
14235;SDS011;7202;50.718;7.072;2022-08-19T02:34:11;12.00;;;9.65;;
14235;SDS011;7202;50.718;7.072;2022-08-19T02:36:40;11.18;;;9.93;;
14235;SDS011;7202;50.718;7.072;2022-08-19T02:39:08;10.80;;;9.52;;
14235;SDS011;7202;50.718;7.072;2022-08-19T02:41:36;9.90;;;8.90;;
14235;SDS011;7202;50.718;7.072;2022-08-19T02:44:06;10.73;;;9.73;;
14235;SDS011;7202;50.718;7.072;2022-08-19T02:46:55;10.77;;;9.77;;
14235;SDS011;7202;50.718;7.072;2022-08-19T02:49:24;10.95;;;9.07;;
14235;SDS011;7202;50.718;7.072;2022-08-19T02:51:53;10.63;;;9.50;;
14235;SDS011;7202;50.718;7.072;2022-08-19T02:54:21;12.02;;;9.10;;
14235;SDS011;7202;50.718;7.072;2022-08-19T02:56:50;10.82;;;9.85;;
14235;SDS011;7202;50.718;7.072;2022-08-19T02:59:20;10.55;;;9.55;;
14235;SDS011;7202;50.718;7.072;2022-08-19T03:01:49;10.90;;;9.68;;
14235;SDS011;7202;50.718;7.072;2022-08-19T03:04:18;9.95;;;9.02;;
14235;SDS011;7202;50.718;7.072;2022-08-19T03:06:47;10.73;;;9.68;;
14235;SDS011;7202;50.718;7.072;2022-08-19T03:09:17;11.60;;;10.43;;
14235;SDS011;7202;50.718;7.072;2022-08-19T03:11:47;11.40;;;9.50;;
14235;SDS011;7202;50.718;7.072;2022-08-19T03:14:20;10.35;;;9.43;;
14235;SDS011;7202;50.718;7.072;2022-08-19T03:16:51;11.52;;;10.32;;
14235;SDS011;7202;50.718;7.072;2022-08-19T03:19:20;10.75;;;9.75;;
14235;SDS011;7202;50.718;7.072;2022-08-19T03:21:49;11.40;;;10.30;;
14235;SDS011;7202;50.718;7.072;2022-08-19T03:24:19;11.98;;;10.32;;
14235;SDS011;7202;50.718;7.072;2022-08-19T03:26:49;11.18;;;10.07;;
14235;SDS011;7202;50.718;7.072;2022-08-19T03:29:20;12.27;;;10.10;;
14235;SDS011;7202;50.718;7.072;2022-08-19T03:31:57;10.18;;;9.18;;
14235;SDS011;7202;50.718;7.072;2022-08-19T03:34:28;12.30;;;11.00;;
14235;SDS011;7202;50.718;7.072;2022-08-19T03:36:59;10.93;;;9.93;;
14235;SDS011;7202;50.718;7.072;2022-08-19T03:39:31;12.95;;;10.73;;
14235;SDS011;7202;50.718;7.072;2022-08-19T03:42:00;12.10;;;10.90;;
14235;SDS011;7202;50.718;7.072;2022-08-19T03:44:51;14.18;;;11.25;;
14235;SDS011;7202;50.718;7.072;2022-08-19T03:47:19;11.13;;;10.10;;
14235;SDS011;7202;50.718;7.072;2022-08-19T03:49:48;11.90;;;10.70;;
14235;SDS011;7202;50.718;7.072;2022-08-19T03:52:17;12.57;;;10.30;;
14235;SDS011;7202;50.718;7.072;2022-08-19T03:54:46;12.07;;;10.80;;
14235;SDS011;7202;50.718;7.072;2022-08-19T03:57:14;12.30;;;11.00;;
14235;SDS011;7202;50.718;7.072;2022-08-19T03:59:43;11.68;;;10.57;;
14235;SDS011;7202;50.718;7.072;2022-08-19T04:02:13;12.13;;;10.93;;
14235;SDS011;7202;50.718;7.072;2022-08-19T04:04:42;11.25;;;10.13;;
14235;SDS011;7202;50.718;7.072;2022-08-19T04:07:12;11.10;;;10.00;;
14235;SDS011;7202;50.718;7.072;2022-08-19T04:09:43;12.10;;;10.88;;
14235;SDS011;7202;50.718;7.072;2022-08-19T04:12:11;13.57;;;12.18;;
14235;SDS011;7202;50.718;7.072;2022-08-19T04:14:40;12.45;;;11.15;;
14235;SDS011;7202;50.718;7.072;2022-08-19T04:17:09;14.30;;;12.23;;
14235;SDS011;7202;50.718;7.072;2022-08-19T04:19:41;12.98;;;11.63;;
14235;SDS011;7202;50.718;7.072;2022-08-19T04:22:10;13.30;;;11.90;;
14235;SDS011;7202;50.718;7.072;2022-08-19T04:24:39;12.95;;;11.60;;
14235;SDS011;7202;50.718;7.072;2022-08-19T04:27:08;13.25;;;11.27;;
14235;SDS011;7202;50.718;7.072;2022-08-19T04:29:36;12.63;;;11.43;;
14235;SDS011;7202;50.718;7.072;2022-08-19T04:32:06;12.88;;;11.60;;
14235;SDS011;7202;50.718;7.072;2022-08-19T04:34:36;13.60;;;12.20;;
14235;SDS011;7202;50.718;7.072;2022-08-19T04:37:27;14.60;;;13.10;;
14235;SDS011;7202;50.718;7.072;2022-08-19T04:40:02;14.77;;;13.27;;
14235;SDS011;7202;50.718;7.072;2022-08-19T04:42:50;14.52;;;12.73;;
14235;SDS011;7202;50.718;7.072;2022-08-19T04:45:21;13.13;;;11.85;;
14235;SDS011;7202;50.718;7.072;2022-08-19T04:47:53;15.70;;;14.02;;
14235;SDS011;7202;50.718;7.072;2022-08-19T04:50:44;14.68;;;12.95;;
14235;SDS011;7202;50.718;7.072;2022-08-19T04:53:14;14.77;;;13.27;;
14235;SDS011;7202;50.718;7.072;2022-08-19T04:55:42;16.70;;;15.10;;
14235;SDS011;7202;50.718;7.072;2022-08-19T04:58:11;15.68;;;13.57;;
14235;SDS011;7202;50.718;7.072;2022-08-19T05:00:41;15.80;;;14.10;;
14235;SDS011;7202;50.718;7.072;2022-08-19T05:03:10;17.27;;;15.48;;
14235;SDS011;7202;50.718;7.072;2022-08-19T05:05:39;16.30;;;14.63;;
14235;SDS011;7202;50.718;7.072;2022-08-19T05:08:11;16.02;;;14.43;;
14235;SDS011;7202;50.718;7.072;2022-08-19T05:10:57;16.13;;;14.52;;
14235;SDS011;7202;50.718;7.072;2022-08-19T05:13:26;16.23;;;14.63;;
14235;SDS011;7202;50.718;7.072;2022-08-19T05:15:55;18.23;;;16.33;;
14235;SDS011;7202;50.718;7.072;2022-08-19T05:18:26;20.85;;;16.30;;
14235;SDS011;7202;50.718;7.072;2022-08-19T05:21:13;17.00;;;15.30;;
14235;SDS011;7202;50.718;7.072;2022-08-19T05:24:02;19.45;;;15.63;;
14235;SDS011;7202;50.718;7.072;2022-08-19T05:26:35;16.35;;;14.65;;
14235;SDS011;7202;50.718;7.072;2022-08-19T05:29:04;19.70;;;17.60;;
14235;SDS011;7202;50.718;7.072;2022-08-19T05:31:36;20.35;;;17.83;;
14235;SDS011;7202;50.718;7.072;2022-08-19T05:34:08;22.27;;;19.95;;
14235;SDS011;7202;50.718;7.072;2022-08-19T05:36:46;22.42;;;19.98;;
14235;SDS011;7202;50.718;7.072;2022-08-19T05:39:17;23.90;;;19.77;;
14235;SDS011;7202;50.718;7.072;2022-08-19T05:41:48;22.55;;;19.08;;
14235;SDS011;7202;50.718;7.072;2022-08-19T05:44:19;19.60;;;17.55;;
14235;SDS011;7202;50.718;7.072;2022-08-19T05:46:48;22.40;;;20.10;;
14235;SDS011;7202;50.718;7.072;2022-08-19T05:49:20;22.02;;;19.73;;
14235;SDS011;7202;50.718;7.072;2022-08-19T05:51:51;21.77;;;19.33;;
14235;SDS011;7202;50.718;7.072;2022-08-19T05:54:21;21.00;;;18.65;;
14235;SDS011;7202;50.718;7.072;2022-08-19T05:56:51;22.25;;;19.95;;
14235;SDS011;7202;50.718;7.072;2022-08-19T05:59:20;22.95;;;20.55;;
14235;SDS011;7202;50.718;7.072;2022-08-19T06:01:51;22.65;;;20.27;;
14235;SDS011;7202;50.718;7.072;2022-08-19T06:04:22;23.85;;;19.88;;
14235;SDS011;7202;50.718;7.072;2022-08-19T06:06:52;32.08;;;22.88;;
14235;SDS011;7202;50.718;7.072;2022-08-19T06:09:22;25.48;;;22.75;;
14235;SDS011;7202;50.718;7.072;2022-08-19T06:11:52;31.23;;;23.55;;
14235;SDS011;7202;50.718;7.072;2022-08-19T06:14:24;23.67;;;21.10;;
14235;SDS011;7202;50.718;7.072;2022-08-19T06:16:55;29.45;;;23.67;;
14235;SDS011;7202;50.718;7.072;2022-08-19T06:19:24;30.42;;;24.00;;
14235;SDS011;7202;50.718;7.072;2022-08-19T06:21:53;27.85;;;24.67;;
14235;SDS011;7202;50.718;7.072;2022-08-19T06:24:24;29.17;;;26.00;;
14235;SDS011;7202;50.718;7.072;2022-08-19T06:26:55;27.40;;;24.33;;
14235;SDS011;7202;50.718;7.072;2022-08-19T06:29:27;29.05;;;25.45;;
14235;SDS011;7202;50.718;7.072;2022-08-19T06:31:59;32.05;;;27.40;;
14235;SDS011;7202;50.718;7.072;2022-08-19T06:34:30;26.75;;;23.88;;
14235;SDS011;7202;50.718;7.072;2022-08-19T06:37:00;28.75;;;23.95;;
14235;SDS011;7202;50.718;7.072;2022-08-19T06:39:31;32.00;;;25.42;;
14235;SDS011;7202;50.718;7.072;2022-08-19T06:42:03;29.88;;;25.38;;
14235;SDS011;7202;50.718;7.072;2022-08-19T06:44:37;35.78;;;29.27;;
14235;SDS011;7202;50.718;7.072;2022-08-19T06:47:11;32.63;;;27.50;;
14235;SDS011;7202;50.718;7.072;2022-08-19T06:49:53;31.42;;;26.58;;
14235;SDS011;7202;50.718;7.072;2022-08-19T06:52:27;31.98;;;27.60;;
14235;SDS011;7202;50.718;7.072;2022-08-19T06:54:57;29.83;;;24.45;;
14235;SDS011;7202;50.718;7.072;2022-08-19T06:57:26;28.48;;;24.08;;
14235;SDS011;7202;50.718;7.072;2022-08-19T06:59:59;31.25;;;24.40;;
14235;SDS011;7202;50.718;7.072;2022-08-19T07:02:28;29.25;;;23.80;;
14235;SDS011;7202;50.718;7.072;2022-08-19T07:04:56;28.25;;;23.42;;
14235;SDS011;7202;50.718;7.072;2022-08-19T07:07:26;33.55;;;27.20;;
14235;SDS011;7202;50.718;7.072;2022-08-19T07:09:56;29.83;;;23.02;;
14235;SDS011;7202;50.718;7.072;2022-08-19T07:12:30;30.15;;;26.77;;
14235;SDS011;7202;50.718;7.072;2022-08-19T07:15:02;30.92;;;25.10;;
14235;SDS011;7202;50.718;7.072;2022-08-19T07:17:31;29.95;;;24.75;;
14235;SDS011;7202;50.718;7.072;2022-08-19T07:20:01;34.75;;;24.85;;
14235;SDS011;7202;50.718;7.072;2022-08-19T07:22:35;25.83;;;21.60;;
14235;SDS011;7202;50.718;7.072;2022-08-19T07:25:07;27.05;;;22.75;;
14235;SDS011;7202;50.718;7.072;2022-08-19T07:27:37;26.48;;;22.48;;
14235;SDS011;7202;50.718;7.072;2022-08-19T07:30:06;31.55;;;22.70;;
14235;SDS011;7202;50.718;7.072;2022-08-19T07:32:38;26.77;;;22.90;;
14235;SDS011;7202;50.718;7.072;2022-08-19T07:35:07;21.67;;;19.23;;
14235;SDS011;7202;50.718;7.072;2022-08-19T07:37:37;28.10;;;22.80;;
14235;SDS011;7202;50.718;7.072;2022-08-19T07:40:12;23.83;;;19.77;;
14235;SDS011;7202;50.718;7.072;2022-08-19T07:42:41;26.65;;;20.95;;
14235;SDS011;7202;50.718;7.072;2022-08-19T07:45:10;24.10;;;20.77;;
14235;SDS011;7202;50.718;7.072;2022-08-19T07:47:39;18.80;;;16.67;;
14235;SDS011;7202;50.718;7.072;2022-08-19T07:50:17;25.02;;;20.02;;
14235;SDS011;7202;50.718;7.072;2022-08-19T07:52:47;25.35;;;19.30;;
14235;SDS011;7202;50.718;7.072;2022-08-19T07:55:20;25.10;;;19.52;;
14235;SDS011;7202;50.718;7.072;2022-08-19T07:58:06;23.67;;;20.52;;
14235;SDS011;7202;50.718;7.072;2022-08-19T08:00:35;26.90;;;21.25;;
14235;SDS011;7202;50.718;7.072;2022-08-19T08:03:05;28.40;;;23.40;;
14235;SDS011;7202;50.718;7.072;2022-08-19T08:05:35;24.70;;;19.98;;
14235;SDS011;7202;50.718;7.072;2022-08-19T08:08:21;20.85;;;18.17;;
14235;SDS011;7202;50.718;7.072;2022-08-19T08:11:15;24.25;;;20.90;;
14235;SDS011;7202;50.718;7.072;2022-08-19T08:13:47;22.85;;;18.38;;
14235;SDS011;7202;50.718;7.072;2022-08-19T08:16:30;16.73;;;14.27;;
14235;SDS011;7202;50.718;7.072;2022-08-19T08:19:05;22.52;;;17.00;;
14235;SDS011;7202;50.718;7.072;2022-08-19T08:21:51;23.83;;;19.10;;
14235;SDS011;7202;50.718;7.072;2022-08-19T08:24:21;20.02;;;17.88;;
14235;SDS011;7202;50.718;7.072;2022-08-19T08:26:56;19.23;;;16.42;;
14235;SDS011;7202;50.718;7.072;2022-08-19T08:29:25;20.02;;;17.02;;
14235;SDS011;7202;50.718;7.072;2022-08-19T08:32:01;20.83;;;15.90;;
14235;SDS011;7202;50.718;7.072;2022-08-19T08:34:40;18.85;;;13.63;;
14235;SDS011;7202;50.718;7.072;2022-08-19T08:37:09;18.67;;;14.93;;
14235;SDS011;7202;50.718;7.072;2022-08-19T08:39:37;19.35;;;15.27;;
14235;SDS011;7202;50.718;7.072;2022-08-19T08:42:08;17.52;;;14.48;;
14235;SDS011;7202;50.718;7.072;2022-08-19T08:44:47;17.60;;;14.45;;
14235;SDS011;7202;50.718;7.072;2022-08-19T08:47:25;17.30;;;14.85;;
14235;SDS011;7202;50.718;7.072;2022-08-19T08:49:59;16.10;;;13.15;;
14235;SDS011;7202;50.718;7.072;2022-08-19T08:52:32;22.52;;;16.17;;
14235;SDS011;7202;50.718;7.072;2022-08-19T08:55:07;17.75;;;14.90;;
14235;SDS011;7202;50.718;7.072;2022-08-19T08:57:49;20.77;;;16.15;;
14235;SDS011;7202;50.718;7.072;2022-08-19T09:00:24;21.80;;;17.40;;
14235;SDS011;7202;50.718;7.072;2022-08-19T09:02:56;25.25;;;19.60;;
14235;SDS011;7202;50.718;7.072;2022-08-19T09:05:34;22.38;;;16.45;;
14235;SDS011;7202;50.718;7.072;2022-08-19T09:08:16;20.85;;;14.80;;
14235;SDS011;7202;50.718;7.072;2022-08-19T09:10:56;18.77;;;15.07;;
14235;SDS011;7202;50.718;7.072;2022-08-19T09:13:28;20.98;;;16.17;;
14235;SDS011;7202;50.718;7.072;2022-08-19T09:16:05;21.20;;;18.02;;
14235;SDS011;7202;50.718;7.072;2022-08-19T09:18:41;21.00;;;16.27;;
14235;SDS011;7202;50.718;7.072;2022-08-19T09:21:12;25.60;;;19.98;;
14235;SDS011;7202;50.718;7.072;2022-08-19T09:23:43;20.35;;;17.08;;
14235;SDS011;7202;50.718;7.072;2022-08-19T09:26:17;22.02;;;17.85;;
14235;SDS011;7202;50.718;7.072;2022-08-19T09:28:50;26.88;;;20.80;;
14235;SDS011;7202;50.718;7.072;2022-08-19T09:31:25;25.67;;;20.45;;
14235;SDS011;7202;50.718;7.072;2022-08-19T09:33:56;29.50;;;22.27;;
14235;SDS011;7202;50.718;7.072;2022-08-19T09:36:25;22.30;;;17.45;;
14235;SDS011;7202;50.718;7.072;2022-08-19T09:39:01;24.80;;;20.63;;
14235;SDS011;7202;50.718;7.072;2022-08-19T09:41:42;23.02;;;17.77;;
14235;SDS011;7202;50.718;7.072;2022-08-19T09:44:16;24.55;;;19.23;;
14235;SDS011;7202;50.718;7.072;2022-08-19T09:46:47;23.70;;;19.85;;
14235;SDS011;7202;50.718;7.072;2022-08-19T09:49:18;24.75;;;17.58;;
14235;SDS011;7202;50.718;7.072;2022-08-19T09:51:50;21.30;;;17.08;;
14235;SDS011;7202;50.718;7.072;2022-08-19T09:54:23;19.50;;;16.60;;
14235;SDS011;7202;50.718;7.072;2022-08-19T09:56:52;19.90;;;17.02;;
14235;SDS011;7202;50.718;7.072;2022-08-19T09:59:23;22.17;;;17.75;;
14235;SDS011;7202;50.718;7.072;2022-08-19T10:01:51;16.88;;;13.93;;
14235;SDS011;7202;50.718;7.072;2022-08-19T10:04:29;21.80;;;18.73;;
14235;SDS011;7202;50.718;7.072;2022-08-19T10:07:12;20.27;;;17.52;;
14235;SDS011;7202;50.718;7.072;2022-08-19T10:09:41;20.50;;;14.85;;
14235;SDS011;7202;50.718;7.072;2022-08-19T10:12:12;20.33;;;14.73;;
14235;SDS011;7202;50.718;7.072;2022-08-19T10:14:47;16.98;;;15.18;;
14235;SDS011;7202;50.718;7.072;2022-08-19T10:17:17;17.15;;;15.35;;
14235;SDS011;7202;50.718;7.072;2022-08-19T10:19:52;13.18;;;11.80;;
14235;SDS011;7202;50.718;7.072;2022-08-19T10:22:22;16.30;;;12.05;;
14235;SDS011;7202;50.718;7.072;2022-08-19T10:24:52;13.85;;;12.40;;
14235;SDS011;7202;50.718;7.072;2022-08-19T10:27:21;16.17;;;14.10;;
14235;SDS011;7202;50.718;7.072;2022-08-19T10:29:53;17.35;;;13.80;;
14235;SDS011;7202;50.718;7.072;2022-08-19T10:32:24;16.02;;;11.63;;
14235;SDS011;7202;50.718;7.072;2022-08-19T10:35:00;16.88;;;14.38;;
14235;SDS011;7202;50.718;7.072;2022-08-19T10:37:32;13.98;;;12.63;;
14235;SDS011;7202;50.718;7.072;2022-08-19T10:40:01;14.02;;;12.02;;
14235;SDS011;7202;50.718;7.072;2022-08-19T10:42:31;16.15;;;13.57;;
14235;SDS011;7202;50.718;7.072;2022-08-19T10:45:01;14.15;;;12.57;;
14235;SDS011;7202;50.718;7.072;2022-08-19T10:47:31;13.75;;;12.35;;
14235;SDS011;7202;50.718;7.072;2022-08-19T10:50:00;12.90;;;11.60;;
14235;SDS011;7202;50.718;7.072;2022-08-19T10:52:47;12.23;;;10.80;;
14235;SDS011;7202;50.718;7.072;2022-08-19T10:55:17;12.60;;;11.30;;
14235;SDS011;7202;50.718;7.072;2022-08-19T10:58:09;11.30;;;10.20;;
14235;SDS011;7202;50.718;7.072;2022-08-19T11:00:41;12.30;;;9.63;;
14235;SDS011;7202;50.718;7.072;2022-08-19T11:03:11;17.13;;;9.70;;
14235;SDS011;7202;50.718;7.072;2022-08-19T11:05:40;14.68;;;11.55;;
14235;SDS011;7202;50.718;7.072;2022-08-19T11:08:08;15.30;;;12.38;;
14235;SDS011;7202;50.718;7.072;2022-08-19T11:10:50;11.23;;;9.95;;
14235;SDS011;7202;50.718;7.072;2022-08-19T11:13:26;10.30;;;9.20;;
14235;SDS011;7202;50.718;7.072;2022-08-19T11:16:01;9.82;;;8.90;;
14235;SDS011;7202;50.718;7.072;2022-08-19T11:18:35;13.73;;;9.73;;
14235;SDS011;7202;50.718;7.072;2022-08-19T11:21:06;10.25;;;9.15;;
14235;SDS011;7202;50.718;7.072;2022-08-19T11:23:37;8.88;;;7.72;;
14235;SDS011;7202;50.718;7.072;2022-08-19T11:26:06;11.55;;;8.25;;
14235;SDS011;7202;50.718;7.072;2022-08-19T11:28:35;9.43;;;8.30;;
14235;SDS011;7202;50.718;7.072;2022-08-19T11:31:05;11.35;;;10.05;;
14235;SDS011;7202;50.718;7.072;2022-08-19T11:33:38;13.45;;;9.95;;
14235;SDS011;7202;50.718;7.072;2022-08-19T11:36:14;11.40;;;8.50;;
14235;SDS011;7202;50.718;7.072;2022-08-19T11:38:44;8.38;;;7.57;;
14235;SDS011;7202;50.718;7.072;2022-08-19T11:41:15;7.82;;;7.13;;
14235;SDS011;7202;50.718;7.072;2022-08-19T11:43:45;9.68;;;8.50;;
14235;SDS011;7202;50.718;7.072;2022-08-19T11:46:16;10.25;;;8.45;;
14235;SDS011;7202;50.718;7.072;2022-08-19T11:48:45;10.07;;;9.02;;
14235;SDS011;7202;50.718;7.072;2022-08-19T11:51:18;8.80;;;7.90;;
14235;SDS011;7202;50.718;7.072;2022-08-19T11:53:49;9.02;;;7.40;;
14235;SDS011;7202;50.718;7.072;2022-08-19T11:56:18;10.65;;;9.68;;
14235;SDS011;7202;50.718;7.072;2022-08-19T11:58:48;11.70;;;10.50;;
14235;SDS011;7202;50.718;7.072;2022-08-19T12:01:18;14.10;;;10.32;;
14235;SDS011;7202;50.718;7.072;2022-08-19T12:03:49;14.30;;;11.45;;
14235;SDS011;7202;50.718;7.072;2022-08-19T12:06:20;15.60;;;11.73;;
14235;SDS011;7202;50.718;7.072;2022-08-19T12:08:52;10.65;;;9.65;;
14235;SDS011;7202;50.718;7.072;2022-08-19T12:11:21;10.93;;;9.25;;
14235;SDS011;7202;50.718;7.072;2022-08-19T12:13:50;12.23;;;10.93;;
14235;SDS011;7202;50.718;7.072;2022-08-19T12:16:22;14.15;;;12.75;;
14235;SDS011;7202;50.718;7.072;2022-08-19T12:18:53;14.25;;;11.48;;
14235;SDS011;7202;50.718;7.072;2022-08-19T12:21:23;14.32;;;11.95;;
14235;SDS011;7202;50.718;7.072;2022-08-19T12:23:56;13.15;;;11.93;;
14235;SDS011;7202;50.718;7.072;2022-08-19T12:26:26;13.40;;;11.95;;
14235;SDS011;7202;50.718;7.072;2022-08-19T12:28:56;13.18;;;11.80;;
14235;SDS011;7202;50.718;7.072;2022-08-19T12:31:28;12.70;;;11.43;;
14235;SDS011;7202;50.718;7.072;2022-08-19T12:33:57;14.43;;;12.95;;
14235;SDS011;7202;50.718;7.072;2022-08-19T12:36:29;14.90;;;12.88;;
14235;SDS011;7202;50.718;7.072;2022-08-19T12:38:58;14.35;;;12.85;;
14235;SDS011;7202;50.718;7.072;2022-08-19T12:41:28;14.77;;;12.82;;
14235;SDS011;7202;50.718;7.072;2022-08-19T12:43:57;13.82;;;12.23;;
14235;SDS011;7202;50.718;7.072;2022-08-19T12:46:28;15.98;;;14.30;;
14235;SDS011;7202;50.718;7.072;2022-08-19T12:48:59;13.70;;;12.43;;
14235;SDS011;7202;50.718;7.072;2022-08-19T12:51:48;14.30;;;12.82;;
14235;SDS011;7202;50.718;7.072;2022-08-19T12:54:17;15.38;;;12.10;;
14235;SDS011;7202;50.718;7.072;2022-08-19T12:56:45;15.45;;;13.65;;
14235;SDS011;7202;50.718;7.072;2022-08-19T12:59:14;14.77;;;11.15;;
14235;SDS011;7202;50.718;7.072;2022-08-19T13:01:45;12.52;;;11.32;;
14235;SDS011;7202;50.718;7.072;2022-08-19T13:04:14;11.98;;;10.77;;
14235;SDS011;7202;50.718;7.072;2022-08-19T13:06:43;12.35;;;10.10;;
14235;SDS011;7202;50.718;7.072;2022-08-19T13:09:12;11.75;;;10.55;;
14235;SDS011;7202;50.718;7.072;2022-08-19T13:11:40;10.90;;;9.90;;
14235;SDS011;7202;50.718;7.072;2022-08-19T13:14:10;11.73;;;10.52;;
14235;SDS011;7202;50.718;7.072;2022-08-19T13:16:39;11.57;;;10.40;;
14235;SDS011;7202;50.718;7.072;2022-08-19T13:19:09;11.18;;;10.07;;
14235;SDS011;7202;50.718;7.072;2022-08-19T13:21:39;9.75;;;8.88;;
14235;SDS011;7202;50.718;7.072;2022-08-19T13:24:08;9.60;;;8.70;;
14235;SDS011;7202;50.718;7.072;2022-08-19T13:26:37;10.13;;;9.15;;
14235;SDS011;7202;50.718;7.072;2022-08-19T13:29:05;10.25;;;9.20;;
14235;SDS011;7202;50.718;7.072;2022-08-19T13:31:52;11.20;;;9.65;;
14235;SDS011;7202;50.718;7.072;2022-08-19T13:34:46;9.80;;;8.70;;
14235;SDS011;7202;50.718;7.072;2022-08-19T13:37:14;12.00;;;9.77;;
14235;SDS011;7202;50.718;7.072;2022-08-19T13:40:03;10.77;;;8.95;;
14235;SDS011;7202;50.718;7.072;2022-08-19T13:42:33;9.75;;;8.30;;
14235;SDS011;7202;50.718;7.072;2022-08-19T13:45:02;16.35;;;11.98;;
14235;SDS011;7202;50.718;7.072;2022-08-19T13:47:31;11.32;;;10.18;;
14235;SDS011;7202;50.718;7.072;2022-08-19T13:50:03;11.00;;;9.85;;
14235;SDS011;7202;50.718;7.072;2022-08-19T13:52:32;10.43;;;9.43;;
14235;SDS011;7202;50.718;7.072;2022-08-19T13:55:01;13.10;;;10.68;;
14235;SDS011;7202;50.718;7.072;2022-08-19T13:57:31;10.32;;;9.32;;
14235;SDS011;7202;50.718;7.072;2022-08-19T14:00:00;11.50;;;9.43;;
14235;SDS011;7202;50.718;7.072;2022-08-19T14:02:30;11.07;;;9.80;;
14235;SDS011;7202;50.718;7.072;2022-08-19T14:05:01;10.45;;;9.25;;
14235;SDS011;7202;50.718;7.072;2022-08-19T14:07:32;11.70;;;9.43;;
14235;SDS011;7202;50.718;7.072;2022-08-19T14:10:01;10.23;;;7.88;;
14235;SDS011;7202;50.718;7.072;2022-08-19T14:12:29;11.00;;;7.93;;
14235;SDS011;7202;50.718;7.072;2022-08-19T14:14:58;8.63;;;7.82;;
14235;SDS011;7202;50.718;7.072;2022-08-19T14:17:28;9.75;;;8.43;;
14235;SDS011;7202;50.718;7.072;2022-08-19T14:19:56;9.43;;;7.30;;
14235;SDS011;7202;50.718;7.072;2022-08-19T14:22:38;8.07;;;7.28;;
14235;SDS011;7202;50.718;7.072;2022-08-19T14:25:08;10.43;;;7.53;;
14235;SDS011;7202;50.718;7.072;2022-08-19T14:27:39;9.85;;;8.85;;
14235;SDS011;7202;50.718;7.072;2022-08-19T14:30:09;16.77;;;9.02;;
14235;SDS011;7202;50.718;7.072;2022-08-19T14:32:40;9.05;;;8.15;;
14235;SDS011;7202;50.718;7.072;2022-08-19T14:35:10;8.48;;;7.55;;
14235;SDS011;7202;50.718;7.072;2022-08-19T14:37:42;8.57;;;7.32;;
14235;SDS011;7202;50.718;7.072;2022-08-19T14:40:12;8.55;;;7.65;;
14235;SDS011;7202;50.718;7.072;2022-08-19T14:42:43;11.95;;;9.02;;
14235;SDS011;7202;50.718;7.072;2022-08-19T14:45:11;11.43;;;8.45;;
14235;SDS011;7202;50.718;7.072;2022-08-19T14:47:40;16.67;;;8.55;;
14235;SDS011;7202;50.718;7.072;2022-08-19T14:50:11;11.13;;;7.97;;
14235;SDS011;7202;50.718;7.072;2022-08-19T14:52:46;8.32;;;7.45;;
14235;SDS011;7202;50.718;7.072;2022-08-19T14:55:16;9.93;;;8.10;;
14235;SDS011;7202;50.718;7.072;2022-08-19T14:57:45;11.43;;;8.05;;
14235;SDS011;7202;50.718;7.072;2022-08-19T15:00:14;103.40;;;16.48;;
14235;SDS011;7202;50.718;7.072;2022-08-19T15:02:43;9.95;;;8.48;;
14235;SDS011;7202;50.718;7.072;2022-08-19T15:05:12;15.23;;;9.10;;
14235;SDS011;7202;50.718;7.072;2022-08-19T15:07:41;12.23;;;7.50;;
14235;SDS011;7202;50.718;7.072;2022-08-19T15:10:11;8.18;;;6.95;;